KFLG/FLG METAR and TAF weather

Enter ICAO airport designator
Station Type Date Time Source
KFLG METAR 2021/05/14 22:57 UTC NOAA

KFLG 142257Z 21017G22KT 10SM CLR 23/M08 A3012 RMK AO2 SLP114 T02331078


Station Type Date Time Source
KFLG Decoded METAR 2021/05/14 22:57 UTC NOAA

FLAGSTAFF PULLIAM AIRPORT, AZ, United States (KFLG) 35-08N 111-40W 2134M
May 14, 2021 - 06:57 PM EDT / 2021.05.14 2257 UTC
Wind: from the SSW (210 degrees) at 20 MPH (17 KT) gusting to 25 MPH (22 KT):0
Visibility: 10 mile(s):0
Sky conditions: clear
Temperature: 73.9 F (23.3 C)
Dew Point: 18.0 F (-7.8 C)
Relative Humidity: 11%
Pressure (altimeter): 30.12 in. Hg (1019 hPa)
ob: KFLG 142257Z 21017G22KT 10SM CLR 23/M08 A3012 RMK AO2 SLP114 T02331078
cycle: 23

Station Type Date Time Source
KFLG TAF 2021/05/14 18:28 UTC NOAA

TAF KFLG 141726Z 1418/1518 22012G22KT P6SM SKC
FM150300 23006KT P6SM SKC
FM151600 21010G17KT P6SM SKC

Example: see airport list